Time;durP1;ratioP1;P1;durP2;ratioP2;P2;SDS_P1;SDS_P2;PMS_P1;PMS_P2;Temp;Humidity;BMP_temperature;BMP_pressure;BME280_temperature;BME280_humidity;BME280_pressure;Samples;Min_cycle;Max_cycle;Signal;HPM_P1;HPM_P2
2020/01/25 00:00:31;;;;;;;33.4;24.1;;;;;;;2.18;74.98242;966.0574;;;;
2020/01/25 00:02:56;;;;;;;34.6;24.1;;;;;;;2.22;75.55176;966.0242;;;;
2020/01/25 00:05:26;;;;;;;36.9;24.4;;;;;;;2.25;75.22363;965.9825;;;;
2020/01/25 00:08:07;;;;;;;37;24.4;;;;;;;2.27;74.96387;965.9801;;;;
2020/01/25 00:10:36;;;;;;;33.7;24;;;;;;;2.24;74.62598;965.969;;;;
2020/01/25 00:13:00;;;;;;;35;23.6;;;;;;;2.25;74.44141;965.9704;;;;
2020/01/25 00:15:26;;;;;;;36.6;23.6;;;;;;;2.2;74.75586;965.9509;;;;
2020/01/25 00:19:24;;;;;;;33.4;23.9;;;;;;;2.19;74.70703;965.9458;;;;
2020/01/25 00:21:43;;;;;;;38.3;24.2;;;;;;;2.18;74.78711;965.9877;;;;
2020/01/25 00:24:08;;;;;;;37.3;24.9;;;;;;;2.18;74.7168;966.0334;;;;
2020/01/25 00:26:33;;;;;;;34.8;25.6;;;;;;;2.17;75.2207;965.9919;;;;
2020/01/25 00:29:08;;;;;;;33;22.9;;;;;;;2.1;75.50879;965.9224;;;;
2020/01/25 00:31:41;;;;;;;35.4;23.6;;;;;;;2.06;75.52246;965.858;;;;
2020/01/25 00:34:09;;;;;;;35.9;24.1;;;;;;;2.12;75.4541;965.8519;;;;
2020/01/25 00:36:34;;;;;;;34.4;24.1;;;;;;;2.05;75.52246;965.8427;;;;
2020/01/25 00:39:03;;;;;;;35.5;23.6;;;;;;;2.01;75.73145;965.827;;;;
2020/01/25 00:41:28;;;;;;;39.9;25.1;;;;;;;2.02;76.05566;965.7916;;;;
2020/01/25 00:43:53;;;;;;;36.9;24.9;;;;;;;1.99;76.23535;965.7586;;;;
2020/01/25 00:46:19;;;;;;;37.3;25.2;;;;;;;2;76.20215;965.7785;;;;
2020/01/25 00:48:44;;;;;;;37.5;24.7;;;;;;;1.99;75.75293;965.7258;;;;
2020/01/25 00:51:09;;;;;;;36.9;25.6;;;;;;;2.08;75.5498;965.7511;;;;
2020/01/25 00:53:34;;;;;;;40;26.5;;;;;;;2;76.13379;965.7368;;;;
2020/01/25 00:56:13;;;;;;;39.4;25.7;;;;;;;1.95;75.5957;965.7349;;;;
2020/01/25 00:58:39;;;;;;;36.6;25.1;;;;;;;1.98;75.30273;965.7026;;;;
2020/01/25 01:01:12;;;;;;;38.9;24.4;;;;;;;2;75.54785;965.6589;;;;
2020/01/25 01:03:35;;;;;;;34.4;23.1;;;;;;;1.95;75.67578;965.6401;;;;
2020/01/25 01:06:20;;;;;;;33.2;23.1;;;;;;;1.83;76.02344;965.6345;;;;
2020/01/25 01:08:47;;;;;;;33.5;24.3;;;;;;;1.87;76.0166;965.6152;;;;
2020/01/25 01:11:12;;;;;;;36;24.8;;;;;;;1.79;76.17383;965.6365;;;;
2020/01/25 01:13:37;;;;;;;34;22.8;;;;;;;1.69;76.79004;965.6088;;;;
2020/01/25 01:16:02;;;;;;;29.8;21.4;;;;;;;1.54;77.38086;965.5992;;;;
2020/01/25 01:18:27;;;;;;;31;21.4;;;;;;;1.63;76.53613;965.6063;;;;
2020/01/25 01:20:52;;;;;;;33.6;21.5;;;;;;;1.65;76.1748;965.6082;;;;
2020/01/25 01:23:29;;;;;;;33.8;21.8;;;;;;;1.6;77.12988;965.6118;;;;
2020/01/25 01:25:57;;;;;;;31;21.7;;;;;;;1.61;76.5;965.6125;;;;
2020/01/25 01:28:20;;;;;;;31.9;21.5;;;;;;;1.67;76.24512;965.6451;;;;
2020/01/25 01:30:45;;;;;;;30.7;20.4;;;;;;;1.74;75.92676;965.6617;;;;
2020/01/25 01:33:10;;;;;;;32.3;21.7;;;;;;;1.79;75.5459;965.6902;;;;
2020/01/25 01:35:35;;;;;;;30.7;22.1;;;;;;;1.89;74.7002;965.6464;;;;
2020/01/25 01:38:00;;;;;;;34.1;22.8;;;;;;;1.86;74.66113;965.6602;;;;
2020/01/25 01:40:42;;;;;;;32.1;21.5;;;;;;;1.75;75.28418;965.6607;;;;
2020/01/25 01:43:07;;;;;;;30.9;21.2;;;;;;;1.6;76.04883;965.668;;;;
2020/01/25 01:45:48;;;;;;;34;22.8;;;;;;;1.63;76.77832;965.6438;;;;
2020/01/25 01:48:13;;;;;;;34.3;23;;;;;;;1.4;77.90625;965.61;;;;
2020/01/25 01:50:39;;;;;;;33.7;21.8;;;;;;;1.36;78.2334;965.6122;;;;
2020/01/25 01:53:04;;;;;;;29.4;20.1;;;;;;;1.54;77.70215;965.6192;;;;
2020/01/25 01:55:36;;;;;;;31.2;21.7;;;;;;;1.63;76.98535;965.5894;;;;
2020/01/25 01:58:01;;;;;;;35.2;22.5;;;;;;;1.79;76.35938;965.6139;;;;
2020/01/25 02:00:29;;;;;;;36.7;21.7;;;;;;;1.78;76.39258;965.6118;;;;
2020/01/25 02:03:09;;;;;;;30;21;;;;;;;1.69;76.65234;965.6264;;;;
2020/01/25 02:05:34;;;;;;;31;21;;;;;;;1.71;75.75977;965.6297;;;;
2020/01/25 02:07:59;;;;;;;32.1;20.8;;;;;;;1.57;76.25098;965.5309;;;;
2020/01/25 02:10:24;;;;;;;29.4;19.4;;;;;;;1.57;76.40234;965.4852;;;;
2020/01/25 02:12:49;;;;;;;29.8;19.9;;;;;;;1.59;76.22168;965.4412;;;;
2020/01/25 02:15:14;;;;;;;30;19.4;;;;;;;1.59;76.02441;965.4653;;;;
2020/01/25 02:17:51;;;;;;;28.6;19.8;;;;;;;1.68;75.75488;965.4101;;;;
2020/01/25 02:20:16;;;;;;;28.6;19.5;;;;;;;1.63;75.70117;965.4016;;;;
2020/01/25 02:22:55;;;;;;;30;19.8;;;;;;;1.63;75.44727;965.4097;;;;
2020/01/25 02:25:37;;;;;;;28.1;19.2;;;;;;;1.64;75.24219;965.4335;;;;
2020/01/25 02:28:02;;;;;;;31.2;19.6;;;;;;;1.58;75.03809;965.4336;;;;
2020/01/25 02:30:38;;;;;;;32.1;19.9;;;;;;;1.52;75.91016;965.4503;;;;
2020/01/25 02:35:26;;;;;;;30.7;20.5;;;;;;;1.69;75.06738;965.4387;;;;
2020/01/25 02:37:48;;;;;;;31.6;19.9;;;;;;;1.65;75.27637;965.4608;;;;
2020/01/25 02:40:21;;;;;;;31.3;20.3;;;;;;;1.58;76.32129;965.4562;;;;
2020/01/25 02:42:55;;;;;;;40.4;23.4;;;;;;;1.5;76.7666;965.4414;;;;
2020/01/25 02:45:25;;;;;;;35.7;22.2;;;;;;;1.53;76.62207;965.4116;;;;
2020/01/25 02:47:52;;;;;;;34.8;22.5;;;;;;;1.48;76.95605;965.421;;;;
2020/01/25 02:50:24;;;;;;;35.4;22.5;;;;;;;1.58;76.48242;965.4073;;;;
2020/01/25 02:52:49;;;;;;;32.6;20.8;;;;;;;1.52;76.04785;965.3677;;;;
2020/01/25 02:55:19;;;;;;;32.2;21.7;;;;;;;1.58;75.88672;965.3719;;;;
2020/01/25 02:57:45;;;;;;;30.8;21.3;;;;;;;1.62;75.38867;965.3184;;;;
2020/01/25 03:00:21;;;;;;;35.8;22.5;;;;;;;1.62;75.48047;965.3083;;;;
2020/01/25 03:02:44;;;;;;;31;19.8;;;;;;;1.52;76.34668;965.3517;;;;
2020/01/25 03:05:15;;;;;;;28.7;19.8;;;;;;;1.48;76.2793;965.3488;;;;
2020/01/25 03:07:41;;;;;;;30.8;19.5;;;;;;;1.47;76.17676;965.3372;;;;
2020/01/25 03:10:06;;;;;;;29.2;19.7;;;;;;;1.48;76.29297;965.3254;;;;
2020/01/25 03:12:31;;;;;;;28;19.4;;;;;;;1.46;76.31055;965.3783;;;;
2020/01/25 03:14:56;;;;;;;31.2;19.8;;;;;;;1.56;75.7334;965.3675;;;;
2020/01/25 03:17:22;;;;;;;32.2;20;;;;;;;1.54;75.6709;965.3738;;;;
2020/01/25 03:19:47;;;;;;;31.2;19.6;;;;;;;1.5;75.91699;965.4086;;;;
2020/01/25 03:22:12;;;;;;;29.4;19.6;;;;;;;1.55;75.74121;965.3858;;;;
2020/01/25 03:24:37;;;;;;;32.1;20.1;;;;;;;1.51;75.11523;965.3331;;;;
2020/01/25 03:27:02;;;;;;;27.7;18.8;;;;;;;1.49;74.73242;965.3342;;;;
2020/01/25 03:29:27;;;;;;;33.6;19.9;;;;;;;1.42;74.81348;965.3159;;;;
2020/01/25 03:31:52;;;;;;;30.6;20.3;;;;;;;1.35;75.99316;965.3338;;;;
2020/01/25 03:34:17;;;;;;;29.3;19.8;;;;;;;1.52;74.87793;965.3317;;;;
2020/01/25 03:36:42;;;;;;;30.8;19.4;;;;;;;1.57;74.75879;965.3105;;;;
2020/01/25 03:39:07;;;;;;;29.6;18.7;;;;;;;1.53;74.88867;965.3524;;;;
2020/01/25 03:41:32;;;;;;;24.9;17.8;;;;;;;1.45;75.19824;965.3416;;;;
2020/01/25 03:43:57;;;;;;;28.9;18.9;;;;;;;1.33;75.54297;965.3663;;;;
2020/01/25 03:46:30;;;;;;;26.2;18.6;;;;;;;1.34;75.38281;965.399;;;;
2020/01/25 03:48:48;;;;;;;28;18.4;;;;;;;1.35;75.26074;965.3987;;;;
2020/01/25 03:51:16;;;;;;;28.5;18.8;;;;;;;1.31;75.11426;965.4431;;;;
2020/01/25 03:53:38;;;;;;;28.6;18.8;;;;;;;1.22;75.33887;965.4364;;;;
2020/01/25 03:56:03;;;;;;;28.6;19.5;;;;;;;1.13;75.48438;965.4636;;;;
2020/01/25 03:58:29;;;;;;;28.9;18.2;;;;;;;1.06;76.43457;965.427;;;;
2020/01/25 04:02:27;;;;;;;32.3;19.7;;;;;;;1.06;77.03027;965.4688;;;;
2020/01/25 04:04:51;;;;;;;32.4;19.8;;;;;;;1.26;75.88477;965.4442;;;;
2020/01/25 04:07:16;;;;;;;33.8;20;;;;;;;1.34;75.68262;965.4838;;;;
2020/01/25 04:09:41;;;;;;;28.1;19.2;;;;;;;1.28;75.80859;965.4808;;;;
2020/01/25 04:12:06;;;;;;;28.2;18.7;;;;;;;1.23;75.85645;965.4963;;;;
2020/01/25 04:14:32;;;;;;;27.1;18.8;;;;;;;1.29;75.30566;965.4611;;;;
2020/01/25 04:16:57;;;;;;;28.7;18.4;;;;;;;1.29;75.36328;965.4788;;;;
2020/01/25 04:19:22;;;;;;;26.5;17.8;;;;;;;1.28;75.31543;965.4623;;;;
2020/01/25 04:21:47;;;;;;;30.2;18.9;;;;;;;1.33;75.63477;965.4543;;;;
2020/01/25 04:24:12;;;;;;;29.5;19;;;;;;;1.38;75.08008;965.4661;;;;
2020/01/25 04:26:37;;;;;;;30.1;19.5;;;;;;;1.29;75.2832;965.4706;;;;
2020/01/25 04:29:03;;;;;;;28.8;19.7;;;;;;;1.26;75.50781;965.4642;;;;
2020/01/25 04:31:28;;;;;;;29.9;19.4;;;;;;;1.36;74.82617;965.4263;;;;
2020/01/25 04:33:53;;;;;;;28;18.4;;;;;;;1.38;74.34668;965.3828;;;;
2020/01/25 04:36:18;;;;;;;27.7;18.1;;;;;;;1.39;74.23438;965.3761;;;;
2020/01/25 04:38:44;;;;;;;26;18.3;;;;;;;1.31;74.54004;965.3669;;;;
2020/01/25 04:41:09;;;;;;;28.1;18.6;;;;;;;1.22;74.75586;965.4372;;;;
2020/01/25 04:43:35;;;;;;;29.1;18.5;;;;;;;1.16;75.69531;965.402;;;;
2020/01/25 04:46:22;;;;;;;32.4;20.3;;;;;;;1.07;76.79102;965.412;;;;
2020/01/25 04:48:25;;;;;;;25.6;18.6;;;;;;;1.18;75.9043;965.4246;;;;
2020/01/25 04:50:50;;;;;;;35.4;21.7;;;;;;;1.17;75.64063;965.4031;;;;
2020/01/25 04:53:15;;;;;;;36.1;22.1;;;;;;;1.2;75.69141;965.3961;;;;
2020/01/25 04:55:40;;;;;;;36.8;23;;;;;;;1.3;75.28418;965.4656;;;;
2020/01/25 04:58:24;;;;;;;34.8;22.2;;;;;;;1.18;75.34473;965.4933;;;;
2020/01/25 05:00:35;;;;;;;30.3;20.3;;;;;;;1.23;75.22559;965.5259;;;;
2020/01/25 05:02:57;;;;;;;31.2;19.8;;;;;;;1.28;75.06348;965.4719;;;;
2020/01/25 05:05:24;;;;;;;29.1;18.8;;;;;;;1.19;75.15137;965.4877;;;;
2020/01/25 05:07:46;;;;;;;28.9;18.2;;;;;;;1.25;75.18457;965.5517;;;;
2020/01/25 05:10:10;;;;;;;26.2;18.5;;;;;;;1.16;75.53418;965.6199;;;;
2020/01/25 05:12:35;;;;;;;28.1;18.7;;;;;;;1.18;75.60645;965.6489;;;;
2020/01/25 05:15:00;;;;;;;30.7;19;;;;;;;1.2;75.7373;965.6237;;;;
2020/01/25 05:17:26;;;;;;;28.4;19;;;;;;;1.27;75.71582;965.6411;;;;
2020/01/25 05:19:51;;;;;;;33.8;20.8;;;;;;;1.33;75.60059;965.6058;;;;
2020/01/25 05:22:16;;;;;;;32;19.8;;;;;;;1.33;75.49707;965.5698;;;;
2020/01/25 05:24:41;;;;;;;29.4;19.1;;;;;;;1.27;75.56641;965.5483;;;;
2020/01/25 05:27:06;;;;;;;28.9;19.4;;;;;;;1.29;75.29395;965.5941;;;;
2020/01/25 05:29:31;;;;;;;27.5;19;;;;;;;1.19;75.46094;965.5767;;;;
2020/01/25 05:31:56;;;;;;;29.4;18.6;;;;;;;1.26;75.16309;965.6092;;;;
2020/01/25 05:34:21;;;;;;;31.8;20.2;;;;;;;1.24;75.13574;965.6147;;;;
2020/01/25 05:36:46;;;;;;;30.3;19.6;;;;;;;1.24;75.28613;965.6108;;;;
2020/01/25 05:39:11;;;;;;;36.1;23.4;;;;;;;1.27;75.08496;965.5867;;;;
2020/01/25 05:41:36;;;;;;;31.9;23.5;;;;;;;1.29;74.99414;965.5997;;;;
2020/01/25 05:44:01;;;;;;;30;19;;;;;;;1.26;75.12891;965.7054;;;;
2020/01/25 05:48:51;;;;;;;29.3;18.4;;;;;;;1.25;74.9209;965.7873;;;;
2020/01/25 05:51:17;;;;;;;28.8;18.8;;;;;;;1.24;75.22949;965.803;;;;
2020/01/25 05:53:42;;;;;;;26.6;17.6;;;;;;;1.22;75.22461;965.8066;;;;
2020/01/25 05:56:07;;;;;;;28.4;17.5;;;;;;;1.3;75.61719;965.7526;;;;
2020/01/25 05:58:32;;;;;;;28.4;18.3;;;;;;;1.39;74.96875;965.7183;;;;
2020/01/25 06:01:00;;;;;;;28.1;18.5;;;;;;;1.26;75.25488;965.7543;;;;
2020/01/25 06:03:22;;;;;;;28.3;18.4;;;;;;;1.25;75.44824;965.7729;;;;
2020/01/25 06:05:47;;;;;;;29.1;17.8;;;;;;;1.26;75.43848;965.7791;;;;
2020/01/25 06:08:12;;;;;;;34.8;18.8;;;;;;;1.23;76.01758;965.7896;;;;
2020/01/25 06:10:37;;;;;;;27.2;18.4;;;;;;;1.21;75.89941;965.7698;;;;
2020/01/25 06:13:03;;;;;;;28.3;18.1;;;;;;;1.1;76.92188;965.7718;;;;
2020/01/25 06:15:34;;;;;;;35.9;20.6;;;;;;;1.12;77.01855;965.8563;;;;
2020/01/25 06:17:53;;;;;;;30.6;19;;;;;;;1.27;76.37891;965.9033;;;;
2020/01/25 06:21:52;;;;;;;28;16.9;;;;;;;1.41;75.69531;965.9246;;;;
2020/01/25 06:24:18;;;;;;;24.4;16.9;;;;;;;1.3;76.02051;965.956;;;;
2020/01/25 06:26:46;;;;;;;27.5;17;;;;;;;1.34;75.99219;965.9135;;;;
2020/01/25 06:29:11;;;;;;;25.2;15.7;;;;;;;1.39;75.89844;965.978;;;;
2020/01/25 06:31:36;;;;;;;28.1;17.3;;;;;;;1.39;75.63477;965.9532;;;;
2020/01/25 06:34:01;;;;;;;26.8;16;;;;;;;1.39;75.89844;965.9651;;;;
2020/01/25 06:36:26;;;;;;;23.9;16.2;;;;;;;1.42;75.91406;965.998;;;;
2020/01/25 06:38:52;;;;;;;24.9;15.2;;;;;;;1.5;75.65332;965.9536;;;;
2020/01/25 06:41:17;;;;;;;25.5;15.2;;;;;;;1.53;75.52051;965.9648;;;;
2020/01/25 06:43:42;;;;;;;23.5;14.8;;;;;;;1.58;75.64551;965.9651;;;;
2020/01/25 06:46:07;;;;;;;24;14.6;;;;;;;1.55;75.62793;965.9634;;;;
2020/01/25 06:48:33;;;;;;;24.7;14.9;;;;;;;1.54;75.6377;965.9758;;;;
2020/01/25 06:51:02;;;;;;;24.5;15.1;;;;;;;1.62;77.16699;965.9514;;;;
2020/01/25 06:53:27;;;;;;;29.7;15.7;;;;;;;1.66;75.8418;965.9239;;;;
2020/01/25 06:55:57;;;;;;;27;15.8;;;;;;;1.65;75.79492;965.9297;;;;
2020/01/25 06:58:12;;;;;;;28.1;16;;;;;;;1.49;77.49902;965.9658;;;;
2020/01/25 07:00:37;;;;;;;23.9;15.2;;;;;;;1.54;77.24316;966.0449;;;;
2020/01/25 07:03:02;;;;;;;22.5;14.4;;;;;;;1.62;76.82324;966.0641;;;;
2020/01/25 07:05:50;;;;;;;30.3;15.7;;;;;;;1.71;76.42578;966.0675;;;;
2020/01/25 07:09:13;;;;;;;25.8;15.3;;;;;;;1.78;76.50684;966.1307;;;;
2020/01/25 07:10:19;;;;;;;23.8;14.2;;;;;;;1.81;76.38574;966.1158;;;;
2020/01/25 07:12:43;;;;;;;20.8;13;;;;;;;1.92;75.98145;966.1641;;;;
2020/01/25 07:15:08;;;;;;;22.2;13.3;;;;;;;1.98;75.6709;966.176;;;;
2020/01/25 07:17:44;;;;;;;24.1;13.6;;;;;;;2.09;75.28613;966.1233;;;;
2020/01/25 07:19:58;;;;;;;21.8;13.4;;;;;;;2.21;74.96484;966.1015;;;;
2020/01/25 07:22:23;;;;;;;21.2;13.3;;;;;;;2.31;74.3623;966.1572;;;;
2020/01/25 07:24:48;;;;;;;26.3;13.9;;;;;;;2.35;74.3916;966.185;;;;
2020/01/25 07:27:13;;;;;;;25.3;13.8;;;;;;;2.33;74.52441;966.2058;;;;
2020/01/25 07:29:38;;;;;;;22.2;14.1;;;;;;;2.35;74.69043;966.1761;;;;
2020/01/25 07:32:03;;;;;;;24.7;14.7;;;;;;;2.33;75.09961;966.2194;;;;
2020/01/25 07:34:29;;;;;;;28.2;14.9;;;;;;;2.3;75.17578;966.1898;;;;
2020/01/25 07:36:54;;;;;;;21.2;14.3;;;;;;;2.43;74.84375;966.2131;;;;
2020/01/25 07:39:19;;;;;;;21.8;14;;;;;;;2.36;75.18457;966.2056;;;;
2020/01/25 07:41:44;;;;;;;24.9;13.7;;;;;;;2.35;75.57617;966.1881;;;;
2020/01/25 07:44:09;;;;;;;24.2;14;;;;;;;2.36;75.4834;966.1912;;;;
2020/01/25 07:46:34;;;;;;;24.3;13.9;;;;;;;2.5;74.93359;966.2241;;;;
2020/01/25 07:48:59;;;;;;;23.8;14;;;;;;;2.46;75.27246;966.2244;;;;
2020/01/25 07:51:24;;;;;;;26.1;14.8;;;;;;;2.47;75.52734;966.29;;;;
2020/01/25 07:53:49;;;;;;;27.9;14.7;;;;;;;2.55;75.2998;966.2967;;;;
2020/01/25 07:56:14;;;;;;;25.8;14.7;;;;;;;2.54;75.43652;966.2712;;;;
2020/01/25 07:58:39;;;;;;;27.9;14.6;;;;;;;2.6;75.55078;966.2913;;;;
2020/01/25 08:01:04;;;;;;;26.6;15.4;;;;;;;2.51;76.17871;966.309;;;;
2020/01/25 08:03:29;;;;;;;22.1;13.8;;;;;;;2.71;75.50195;966.2375;;;;
2020/01/25 08:05:54;;;;;;;24.6;14.2;;;;;;;2.94;75.03613;966.245;;;;
2020/01/25 08:08:20;;;;;;;23.4;13.3;;;;;;;3.2;73.84863;966.2756;;;;
2020/01/25 08:10:45;;;;;;;22.3;13.2;;;;;;;3.36;73.41602;966.2388;;;;
2020/01/25 08:13:10;;;;;;;30;15.6;;;;;;;3.74;71.99316;966.2673;;;;
2020/01/25 08:15:35;;;;;;;25;14.7;;;;;;;3.84;71.8252;966.315;;;;
2020/01/25 08:18:00;;;;;;;21.9;13.6;;;;;;;3.8;72.0498;966.276;;;;
2020/01/25 08:20:25;;;;;;;25.7;13.6;;;;;;;3.99;71.54004;966.1987;;;;
2020/01/25 08:22:50;;;;;;;24.2;14.5;;;;;;;4.17;70.99219;966.2101;;;;
2020/01/25 08:25:15;;;;;;;26.3;15;;;;;;;4.46;70.19727;966.3067;;;;
2020/01/25 08:27:40;;;;;;;26.5;15;;;;;;;4.92;68.58203;966.3334;;;;
2020/01/25 08:30:07;;;;;;;27;14.4;;;;;;;5.35;67.08984;966.3787;;;;
2020/01/25 08:34:56;;;;;;;23.9;13.9;;;;;;;6.87;62.24902;966.2279;;;;
2020/01/25 08:37:27;;;;;;;26.8;13.7;;;;;;;7.13;60.58887;966.1746;;;;
2020/01/25 08:39:46;;;;;;;25.4;13.6;;;;;;;6.59;62.5918;966.272;;;;
2020/01/25 08:42:11;;;;;;;26.8;13.3;;;;;;;6.12;64.43848;966.335;;;;
2020/01/25 08:44:36;;;;;;;25.1;13.2;;;;;;;6.26;64.65625;966.3997;;;;
2020/01/25 08:47:01;;;;;;;23.7;13.4;;;;;;;6.31;64.58301;966.3793;;;;
2020/01/25 08:49:26;;;;;;;27.5;13.2;;;;;;;7.57;60.79199;966.3864;;;;
2020/01/25 08:51:51;;;;;;;21.9;12.4;;;;;;;8.41;57.56445;966.4515;;;;
2020/01/25 08:54:16;;;;;;;22.9;12;;;;;;;8.39;57.38574;966.4501;;;;
2020/01/25 08:56:41;;;;;;;23.9;12.8;;;;;;;7.45;60.72949;966.4794;;;;
2020/01/25 08:59:06;;;;;;;22.3;12.5;;;;;;;6.93;62.57227;966.4829;;;;
2020/01/25 09:01:32;;;;;;;24.1;13.3;;;;;;;6.63;63.91016;966.4301;;;;
2020/01/25 09:03:57;;;;;;;24.8;13.4;;;;;;;6.69;64.31348;966.3903;;;;
2020/01/25 09:06:22;;;;;;;20.5;12.3;;;;;;;6.66;64.69238;966.4224;;;;
2020/01/25 09:08:47;;;;;;;22.1;13.3;;;;;;;6.02;67.09082;966.4402;;;;
2020/01/25 09:11:12;;;;;;;22.5;12.8;;;;;;;6.86;65.14258;966.5047;;;;
2020/01/25 09:13:37;;;;;;;22.6;12.1;;;;;;;8.3;60.28906;966.4494;;;;
2020/01/25 09:16:02;;;;;;;19.2;12.2;;;;;;;7.96;61.06836;966.4233;;;;
2020/01/25 09:18:27;;;;;;;24;12.9;;;;;;;7.62;62.42773;966.4425;;;;
2020/01/25 09:20:52;;;;;;;24.5;12.7;;;;;;;7.6;62.68164;966.4692;;;;
2020/01/25 09:23:17;;;;;;;22.9;12.7;;;;;;;7.55;62.84863;966.5237;;;;
2020/01/25 09:25:42;;;;;;;22.2;12.5;;;;;;;6.88;65.16895;966.5447;;;;
2020/01/25 09:28:07;;;;;;;23.7;12.7;;;;;;;6.9;65.58984;966.5594;;;;
2020/01/25 09:37:48;;;;;;;24.6;13.2;;;;;;;6.62;68.16016;966.6149;;;;
2020/01/25 09:40:13;;;;;;;22.7;13.2;;;;;;;6.8;67.45703;966.6292;;;;
2020/01/25 09:42:38;;;;;;;22.8;13.9;;;;;;;6.61;68.18164;966.6506;;;;
2020/01/25 09:45:03;;;;;;;25.5;13.6;;;;;;;6.97;67.50781;966.6605;;;;
2020/01/25 09:47:28;;;;;;;25.9;13.7;;;;;;;7.53;66.19727;966.6845;;;;
2020/01/25 09:49:53;;;;;;;23.9;13.2;;;;;;;7.67;65.56836;966.774;;;;
2020/01/25 09:52:18;;;;;;;22.4;12.9;;;;;;;7.77;65.65332;966.7119;;;;
2020/01/25 09:54:43;;;;;;;21.4;12.5;;;;;;;7.82;65.49707;966.7191;;;;
2020/01/25 09:57:08;;;;;;;21.1;12.7;;;;;;;7.75;66.01172;966.7308;;;;
2020/01/25 09:59:33;;;;;;;27.4;12.7;;;;;;;7.32;67.71289;966.7974;;;;
2020/01/25 10:01:58;;;;;;;24.4;12.9;;;;;;;7.13;69.08984;966.8452;;;;
2020/01/25 10:04:23;;;;;;;24.4;13.1;;;;;;;6.95;69.96777;966.8181;;;;
2020/01/25 10:06:49;;;;;;;24.4;12.6;;;;;;;7.23;68.9209;966.7075;;;;
2020/01/25 10:09:14;;;;;;;23;12.3;;;;;;;7.46;67.97852;966.663;;;;
2020/01/25 10:11:39;;;;;;;26.1;12.5;;;;;;;7.64;67.34375;966.6445;;;;
2020/01/25 10:14:04;;;;;;;20.3;13.2;;;;;;;7.89;66.89355;966.6373;;;;
2020/01/25 10:16:29;;;;;;;22.7;12.6;;;;;;;8.2;66.05566;966.6404;;;;
2020/01/25 10:18:54;;;;;;;24.2;12.9;;;;;;;8.57;64.7373;966.6348;;;;
2020/01/25 10:21:19;;;;;;;21.4;13.2;;;;;;;8.6;64.69434;966.6325;;;;
2020/01/25 10:23:44;;;;;;;25;13.7;;;;;;;8.85;63.86914;966.6775;;;;
2020/01/25 10:26:12;;;;;;;21.9;13.3;;;;;;;9.11;63.10059;966.6783;;;;
2020/01/25 10:28:34;;;;;;;24.4;13.5;;;;;;;9.21;62.60059;966.6781;;;;
2020/01/25 10:31:00;;;;;;;25.2;13.7;;;;;;;9.51;61.1709;966.5731;;;;
2020/01/25 10:33:25;;;;;;;23.2;13.6;;;;;;;9.67;59.80273;966.5995;;;;
2020/01/25 10:35:50;;;;;;;23.2;14.2;;;;;;;9.83;59.0293;966.5651;;;;
2020/01/25 10:38:15;;;;;;;26.3;13.3;;;;;;;10.04;57.85254;966.4467;;;;
2020/01/25 10:40:40;;;;;;;29.3;12.8;;;;;;;10.14;57.41016;966.3644;;;;
2020/01/25 10:43:05;;;;;;;25.2;12.9;;;;;;;10.44;56.52344;966.3599;;;;
2020/01/25 10:45:30;;;;;;;22.1;13.3;;;;;;;10.52;56.39258;966.3317;;;;
2020/01/25 10:47:55;;;;;;;22.6;12.4;;;;;;;10.66;55.48438;966.3239;;;;
2020/01/25 10:50:20;;;;;;;25.1;13.2;;;;;;;10.78;55.13672;966.2736;;;;
2020/01/25 10:52:45;;;;;;;24.1;13;;;;;;;10.88;54.98535;966.241;;;;
2020/01/25 10:55:10;;;;;;;25.4;13.4;;;;;;;11.15;54.29199;966.1764;;;;
2020/01/25 10:57:36;;;;;;;22;14;;;;;;;11.8;52.22168;966.175;;;;
2020/01/25 11:00:01;;;;;;;28.6;13.6;;;;;;;12.26;51.0791;966.1563;;;;
2020/01/25 11:02:26;;;;;;;23.1;13.1;;;;;;;11.99;51.61035;966.088;;;;
2020/01/25 11:04:51;;;;;;;22.8;13.8;;;;;;;11.28;53.66211;966.0673;;;;
2020/01/25 11:07:16;;;;;;;29.7;14.6;;;;;;;10.79;54.84473;966.0629;;;;
2020/01/25 11:09:41;;;;;;;24.7;14.7;;;;;;;10.57;56.0127;966.1065;;;;
2020/01/25 11:12:06;;;;;;;30.4;14.7;;;;;;;10.71;55.85449;966.1339;;;;
2020/01/25 11:14:31;;;;;;;29;14.7;;;;;;;10.95;55.09961;966.0962;;;;
2020/01/25 11:16:57;;;;;;;26.1;15.1;;;;;;;11.41;53.7959;966.033;;;;
2020/01/25 11:19:22;;;;;;;25.8;15.8;;;;;;;11.32;53.97266;965.9767;;;;
2020/01/25 11:21:47;;;;;;;27.9;15.4;;;;;;;11.21;54.58301;965.9803;;;;
2020/01/25 11:24:12;;;;;;;29.6;16.3;;;;;;;10.62;55.80762;966.0131;;;;
2020/01/25 11:26:37;;;;;;;29.1;15.9;;;;;;;10.71;56.21875;966.063;;;;
2020/01/25 11:31:32;;;;;;;27.8;16.3;;;;;;;10.14;57.88867;965.975;;;;
2020/01/25 11:33:54;;;;;;;28.7;15.5;;;;;;;9.97;58.70898;965.9219;;;;
2020/01/25 11:38:44;;;;;;;31.2;16.9;;;;;;;9.77;59.64063;965.8488;;;;
2020/01/25 11:41:08;;;;;;;32.7;17;;;;;;;9.77;59.6875;965.8098;;;;
2020/01/25 11:43:33;;;;;;;33.1;16.8;;;;;;;9.93;59.31152;965.7578;;;;
2020/01/25 11:45:58;;;;;;;27.3;16.6;;;;;;;9.96;59.03516;965.7735;;;;
2020/01/25 11:48:23;;;;;;;27.9;16.8;;;;;;;10.02;58.97363;965.7211;;;;
2020/01/25 11:50:48;;;;;;;30.6;16.8;;;;;;;10.24;58.51074;965.6719;;;;
2020/01/25 11:53:13;;;;;;;33.3;17.4;;;;;;;10.39;57.60645;965.6959;;;;
2020/01/25 11:55:39;;;;;;;29.8;16.8;;;;;;;10.18;58.47852;965.6822;;;;
2020/01/25 11:58:04;;;;;;;34.2;17.4;;;;;;;10.21;58.3418;965.6624;;;;
2020/01/25 12:00:31;;;;;;;31.5;17;;;;;;;10.24;58.67578;965.6619;;;;
2020/01/25 12:02:55;;;;;;;24.2;15.8;;;;;;;10.25;58.41895;965.6298;;;;
2020/01/25 12:05:20;;;;;;;33.8;16.9;;;;;;;10.15;58.06543;965.6106;;;;
2020/01/25 12:07:45;;;;;;;35.4;16.2;;;;;;;10.28;57.90723;965.6165;;;;
2020/01/25 12:10:10;;;;;;;27.7;16.3;;;;;;;10.21;58.42383;965.5974;;;;
2020/01/25 12:12:35;;;;;;;28.4;16.7;;;;;;;10.16;58.61719;965.5817;;;;
2020/01/25 12:15:00;;;;;;;30.6;16.6;;;;;;;10.14;59.12988;965.5597;;;;
2020/01/25 12:17:25;;;;;;;33.7;17;;;;;;;9.99;59.02734;965.5555;;;;
2020/01/25 12:19:50;;;;;;;31.7;16.7;;;;;;;9.92;59.07715;965.5718;;;;
2020/01/25 12:22:15;;;;;;;29.7;16.7;;;;;;;9.74;59.60059;965.5064;;;;
2020/01/25 12:26:50;;;;;;;28;16.6;;;;;;;9.63;60.1123;965.4603;;;;
2020/01/25 12:29:15;;;;;;;28.8;17.1;;;;;;;9.84;59.65039;965.4514;;;;
2020/01/25 12:31:40;;;;;;;33.4;17;;;;;;;10;59.22754;965.4453;;;;
2020/01/25 12:34:06;;;;;;;34.9;18.1;;;;;;;10.11;58.98535;965.4517;;;;
2020/01/25 12:38:59;;;;;;;31.8;17;;;;;;;10.28;58.62207;965.4337;;;;
2020/01/25 12:41:21;;;;;;;31.6;17.3;;;;;;;10.28;58.43457;965.3885;;;;
2020/01/25 12:43:46;;;;;;;30.2;16.7;;;;;;;10.2;58.81055;965.3878;;;;
2020/01/25 12:46:11;;;;;;;30.8;17.5;;;;;;;9.97;59.55176;965.3513;;;;
2020/01/25 12:48:36;;;;;;;34.3;18;;;;;;;10.02;59.63965;965.2531;;;;
2020/01/25 12:51:02;;;;;;;29.8;17.1;;;;;;;10.1;59.47461;965.2516;;;;
2020/01/25 12:53:27;;;;;;;33.9;19;;;;;;;10.15;59.2832;965.2438;;;;
2020/01/25 12:55:52;;;;;;;32.7;17.4;;;;;;;10.21;59.35059;965.2436;;;;
2020/01/25 12:58:37;;;;;;;26.6;17.5;;;;;;;10.14;59.39941;965.2173;;;;
2020/01/25 13:00:42;;;;;;;29.3;18.4;;;;;;;10.12;59.54883;965.139;;;;
2020/01/25 13:03:07;;;;;;;32.8;18;;;;;;;10.03;59.72363;965.1636;;;;
2020/01/25 13:05:32;;;;;;;31.5;18.3;;;;;;;9.98;60.06836;965.1206;;;;
2020/01/25 13:07:57;;;;;;;27.2;17.6;;;;;;;10.01;60.18848;965.1477;;;;
2020/01/25 13:10:23;;;;;;;32.2;17.9;;;;;;;9.97;60.45215;965.1231;;;;
2020/01/25 13:12:48;;;;;;;32;18.8;;;;;;;9.86;60.63672;965.0844;;;;
2020/01/25 13:15:13;;;;;;;29.3;18.2;;;;;;;9.85;60.6709;965.0696;;;;
2020/01/25 13:17:38;;;;;;;34.3;18;;;;;;;9.87;60.88281;964.9905;;;;
2020/01/25 13:20:03;;;;;;;36.9;18.9;;;;;;;9.86;61.10352;964.9644;;;;
2020/01/25 13:22:28;;;;;;;32.7;18.1;;;;;;;9.91;60.81836;964.9824;;;;
2020/01/25 13:24:53;;;;;;;33;17.8;;;;;;;9.86;60.44824;964.9797;;;;
2020/01/25 13:27:18;;;;;;;30.1;17.5;;;;;;;9.83;60.98438;964.9472;;;;
2020/01/25 13:29:43;;;;;;;29.2;17.9;;;;;;;9.91;60.83008;964.9387;;;;
2020/01/25 13:32:08;;;;;;;32.1;17.9;;;;;;;9.81;61.01563;964.9274;;;;
2020/01/25 13:34:33;;;;;;;36.1;17.6;;;;;;;9.72;60.4873;964.8948;;;;
2020/01/25 13:36:58;;;;;;;35.7;17.3;;;;;;;9.79;60.01758;964.9102;;;;
2020/01/25 13:39:23;;;;;;;33.6;17;;;;;;;9.85;60.92676;964.9116;;;;
2020/01/25 13:41:48;;;;;;;30.6;16.9;;;;;;;9.93;60.24902;964.9069;;;;
2020/01/25 13:44:13;;;;;;;35.7;17.2;;;;;;;9.96;61.46973;964.9127;;;;
2020/01/25 13:46:38;;;;;;;33.5;16.7;;;;;;;9.97;61.14355;964.9135;;;;
2020/01/25 13:49:04;;;;;;;33.6;17;;;;;;;9.96;60.28711;964.9033;;;;
2020/01/25 13:51:29;;;;;;;31.7;17;;;;;;;9.79;60.37988;964.8644;;;;
2020/01/25 13:53:54;;;;;;;33.6;17.4;;;;;;;9.68;60.87988;964.8962;;;;
2020/01/25 13:56:19;;;;;;;35.1;17.1;;;;;;;9.74;60.8291;964.8483;;;;
2020/01/25 13:58:44;;;;;;;32.8;17.1;;;;;;;9.7;61.22168;964.8367;;;;
2020/01/25 14:01:09;;;;;;;32.6;17.7;;;;;;;9.63;61.5625;964.8541;;;;
2020/01/25 14:03:34;;;;;;;30.2;18.1;;;;;;;9.63;61.27051;964.8572;;;;
2020/01/25 14:05:59;;;;;;;31.2;16.9;;;;;;;9.65;61.82227;964.8394;;;;
2020/01/25 14:08:24;;;;;;;31.6;17.5;;;;;;;9.58;61.77832;964.8167;;;;
2020/01/25 14:10:49;;;;;;;32.9;18.1;;;;;;;9.48;61.57813;964.7941;;;;
2020/01/25 14:13:14;;;;;;;31.5;17.5;;;;;;;9.44;62.07422;964.8211;;;;
2020/01/25 14:15:44;;;;;;;31.5;17.4;;;;;;;9.24;62.53418;964.8629;;;;
2020/01/25 14:18:05;;;;;;;30.8;18;;;;;;;9.27;62.43457;964.8172;;;;
2020/01/25 14:20:30;;;;;;;30.9;18.2;;;;;;;9.22;62.55566;964.7941;;;;
2020/01/25 14:22:55;;;;;;;33.4;18.2;;;;;;;9.26;61.95508;964.8029;;;;
2020/01/25 14:25:20;;;;;;;30.9;18.7;;;;;;;9.19;62.61035;964.7784;;;;
2020/01/25 14:27:45;;;;;;;31.3;17.5;;;;;;;9.1;62.375;964.7111;;;;
2020/01/25 14:30:10;;;;;;;33;18.1;;;;;;;8.99;62.70898;964.7125;;;;
2020/01/25 14:32:35;;;;;;;34;18.1;;;;;;;9;63.27051;964.7523;;;;